Time;durP1;ratioP1;P1;durP2;ratioP2;P2;SDS_P1;SDS_P2;PMS_P1;PMS_P2;Temp;Humidity;BMP_temperature;BMP_pressure;BME280_temperature;BME280_humidity;BME280_pressure;Samples;Min_cycle;Max_cycle;Signal;HPM_P1;HPM_P2
2024/03/16 00:00:46;;;;;;;4.10;1.10;;;11.00;87.30;;;12.45;59.95;97453.44;5014283;28;20050;-42
2024/03/16 00:03:14;;;;;;;1.00;0.90;;;11.00;87.30;;;12.44;59.98;97456.28;5025662;28;20047;-42
2024/03/16 00:05:42;;;;;;;0.60;0.60;;;11.00;87.60;;;12.45;60.17;97460.63;5031771;28;20067;-42
2024/03/16 00:08:10;;;;;;;0.70;0.60;;;11.00;87.50;;;12.41;60.16;97460.97;5023638;28;20526;-42
2024/03/16 00:10:38;;;;;;;1.92;0.93;;;11.00;87.30;;;12.40;60.26;97453.13;5012480;28;20061;-42
2024/03/16 00:13:06;;;;;;;0.90;0.73;;;11.00;87.20;;;12.38;60.31;97455.16;5018829;28;20054;-42
2024/03/16 00:15:34;;;;;;;0.87;0.73;;;11.00;87.80;;;12.38;60.90;97473.84;5031503;28;20067;-42
2024/03/16 00:18:03;;;;;;;0.90;0.80;;;10.90;88.80;;;12.37;60.37;97469.53;5030046;28;20055;-42
2024/03/16 00:20:30;;;;;;;0.90;0.90;;;11.00;89.00;;;12.35;60.56;97469.69;5013772;28;20042;-42
2024/03/16 00:22:58;;;;;;;2.53;0.80;;;11.00;88.60;;;12.35;61.02;97466.22;5013998;28;20038;-42
2024/03/16 00:25:26;;;;;;;0.90;0.80;;;11.00;90.30;;;12.35;61.14;97450.19;5006290;28;20043;-43
2024/03/16 00:27:53;;;;;;;1.30;0.87;;;11.00;91.10;;;12.31;61.32;97449.72;5013852;28;20054;-42
2024/03/16 00:30:23;;;;;;;1.27;0.70;;;10.90;91.40;;;12.28;61.19;97460.72;5027812;28;20056;-42
2024/03/16 00:32:51;;;;;;;1.13;0.57;;;10.90;91.00;;;12.28;61.28;97449.22;5030647;28;20048;-42
2024/03/16 00:35:19;;;;;;;0.70;0.60;;;10.80;91.80;;;12.32;61.29;97447.88;5018495;28;20041;-42
2024/03/16 00:37:47;;;;;;;0.67;0.60;;;10.80;92.50;;;12.34;61.44;97454.69;5013866;28;20422;-42
2024/03/16 00:40:17;;;;;;;0.70;0.70;;;10.90;92.10;;;12.35;61.35;97448.34;5021278;28;20043;-42
2024/03/16 00:42:45;;;;;;;0.77;0.70;;;10.90;91.90;;;12.37;61.40;97450.84;5031664;28;20049;-42
2024/03/16 00:45:13;;;;;;;1.30;0.50;;;10.90;91.90;;;12.36;61.26;97454.50;5023492;28;20036;-42
2024/03/16 00:47:41;;;;;;;0.60;0.60;;;10.90;90.70;;;12.33;61.16;97458.38;5013819;28;20053;-42
2024/03/16 00:50:09;;;;;;;0.50;0.50;;;10.90;90.80;;;12.30;61.51;97452.53;5017636;28;20051;-42
2024/03/16 00:52:36;;;;;;;0.57;0.57;;;10.80;91.00;;;12.26;61.20;97457.41;5029679;28;20060;-42
2024/03/16 00:55:04;;;;;;;1.33;0.63;;;10.80;91.00;;;12.24;61.50;97456.75;5030789;28;20055;-42
2024/03/16 00:57:32;;;;;;;1.43;0.77;;;10.80;90.90;;;12.26;61.21;97449.41;5012253;28;20042;-42
2024/03/16 01:00:00;;;;;;;0.87;0.70;;;10.80;90.70;;;12.23;61.38;97452.41;5013132;28;20047;-42
2024/03/16 01:02:28;;;;;;;0.63;0.40;;;10.80;90.20;;;12.26;61.39;97456.56;5044852;28;20044;-42
2024/03/16 01:04:56;;;;;;;0.60;0.57;;;10.90;90.30;;;12.28;61.53;97459.91;5030533;28;20040;-42
2024/03/16 01:07:24;;;;;;;2.03;0.70;;;10.80;90.70;;;12.29;61.45;97466.88;5017327;28;20044;-42
2024/03/16 01:09:52;;;;;;;0.57;0.57;;;10.80;91.10;;;12.31;61.50;97471.06;5013142;28;20545;-42
2024/03/16 01:12:19;;;;;;;0.60;0.60;;;10.70;92.20;;;12.37;61.45;97466.84;5022221;28;20050;-42
2024/03/16 01:14:47;;;;;;;0.67;0.67;;;10.80;91.40;;;12.41;61.47;97465.50;5030883;28;20044;-42
2024/03/16 01:17:15;;;;;;;1.17;0.70;;;10.80;92.60;;;12.46;61.35;97460.44;5023970;28;20045;-43
2024/03/16 01:19:43;;;;;;;0.80;0.60;;;10.80;92.10;;;12.49;61.27;97462.75;5013289;28;20043;-42
2024/03/16 01:22:11;;;;;;;1.37;0.90;;;10.80;91.80;;;12.48;61.02;97447.72;5016656;28;20498;-42
2024/03/16 01:24:39;;;;;;;0.50;0.50;;;10.80;91.80;;;12.45;60.97;97447.28;5030603;28;20484;-42
2024/03/16 01:27:07;;;;;;;0.63;0.53;;;10.80;91.00;;;12.39;61.07;97446.97;5029948;28;20044;-42
2024/03/16 01:29:34;;;;;;;0.70;0.70;;;10.80;90.60;;;12.40;61.12;97443.28;5013201;28;20434;-43
2024/03/16 01:32:05;;;;;;;0.50;0.50;;;10.80;91.20;;;12.42;61.37;97432.44;5009112;28;20070;-43
2024/03/16 01:34:32;;;;;;;1.50;1.30;;;10.80;91.30;;;12.46;61.19;97441.75;5005270;28;20043;-43
2024/03/16 01:37:00;;;;;;;0.40;0.40;;;10.80;91.40;;;12.47;60.93;97439.94;5012854;28;20057;-42
2024/03/16 01:39:29;;;;;;;0.60;0.60;;;10.70;92.00;;;12.45;60.81;97444.63;5027281;28;20052;-42
2024/03/16 01:41:57;;;;;;;0.70;0.60;;;10.70;91.30;;;12.44;61.05;97435.75;5029919;28;20052;-42
2024/03/16 01:44:25;;;;;;;1.17;0.50;;;10.70;91.10;;;12.44;60.96;97440.28;5018120;28;20041;-43
2024/03/16 01:46:52;;;;;;;1.37;0.70;;;10.80;90.90;;;12.41;60.87;97438.78;5012924;28;20525;-42
2024/03/16 01:49:21;;;;;;;1.47;0.80;;;10.70;90.60;;;12.40;61.07;97440.63;5019519;28;20055;-42
2024/03/16 01:51:49;;;;;;;1.00;0.70;;;10.70;90.70;;;12.38;61.07;97447.16;5029669;28;20048;-42
2024/03/16 01:54:18;;;;;;;0.63;0.60;;;10.80;90.60;;;12.34;61.04;97449.34;5024390;28;20044;-42
2024/03/16 01:56:45;;;;;;;1.20;0.80;;;10.80;90.00;;;12.30;61.11;97444.53;5012544;28;20042;-43
2024/03/16 01:59:13;;;;;;;2.40;1.40;;;10.80;89.70;;;12.30;61.02;97447.22;5013921;28;20051;-43
2024/03/16 02:01:40;;;;;;;2.93;1.00;;;10.80;89.90;;;12.31;61.27;97444.38;5029581;28;20040;-42
2024/03/16 02:04:08;;;;;;;1.80;1.20;;;10.80;89.50;;;12.31;61.23;97447.03;5029690;28;20053;-43
2024/03/16 02:06:36;;;;;;;3.13;1.00;;;10.80;90.10;;;12.32;61.44;97450.53;5003411;28;20046;-42
2024/03/16 02:09:04;;;;;;;3.30;1.37;;;10.80;90.20;;;12.34;61.19;97448.50;5012549;28;20046;-43
2024/03/16 02:11:32;;;;;;;4.03;1.67;;;10.70;91.10;;;12.36;61.14;97447.31;5026964;28;20051;-44
2024/03/16 02:13:59;;;;;;;2.47;1.50;;;10.60;90.90;;;12.32;60.93;97446.00;5029428;28;20048;-43
2024/03/16 02:16:27;;;;;;;7.27;3.20;;;10.70;90.40;;;12.32;60.81;97447.88;5017775;28;20431;-43
2024/03/16 02:18:54;;;;;;;6.87;2.37;;;10.70;90.00;;;12.30;61.04;97437.34;5012195;28;20042;-43
2024/03/16 02:21:22;;;;;;;6.83;1.50;;;10.70;90.50;;;12.30;61.13;97444.53;5019573;28;20050;-43
2024/03/16 02:23:50;;;;;;;9.20;3.23;;;10.60;90.90;;;12.29;61.04;97443.72;5029542;28;20068;-43
2024/03/16 02:26:17;;;;;;;5.07;3.33;;;10.60;90.80;;;12.29;61.16;97443.72;5025172;28;20036;-43
2024/03/16 02:28:45;;;;;;;3.00;2.10;;;10.60;90.60;;;12.26;60.96;97436.06;5012280;28;20529;-43
2024/03/16 02:31:13;;;;;;;19.00;8.23;;;10.50;91.30;;;12.27;60.82;97444.88;5012198;28;20057;-43
2024/03/16 02:33:41;;;;;;;8.73;4.33;;;10.50;91.80;;;12.25;60.72;97444.22;5028684;28;20059;-43
2024/03/16 02:36:09;;;;;;;4.03;2.20;;;10.50;91.80;;;12.23;60.90;97452.41;5029401;28;20051;-43
2024/03/16 02:38:40;;;;;;;5.40;2.33;;;10.40;91.90;;;12.19;60.89;97453.78;5010966;28;20053;-43
2024/03/16 02:41:07;;;;;;;5.17;2.10;;;10.40;92.10;;;12.17;60.98;97445.09;5011618;28;20046;-43
2024/03/16 02:43:35;;;;;;;6.40;2.83;;;10.40;92.10;;;12.16;61.00;97443.47;5027196;28;20435;-43
2024/03/16 02:46:05;;;;;;;8.97;4.63;;;10.40;91.60;;;12.16;61.18;97438.94;5028892;28;20048;-41
2024/03/16 02:48:33;;;;;;;12.87;5.03;;;10.40;91.30;;;12.15;61.27;97444.47;5016106;28;20033;-41
2024/03/16 02:51:00;;;;;;;7.33;3.60;;;10.40;91.20;;;12.15;61.13;97441.78;5011587;28;20046;-41
2024/03/16 02:53:28;;;;;;;16.27;7.10;;;10.40;91.40;;;12.15;61.13;97449.78;5021206;28;20058;-41
2024/03/16 02:55:56;;;;;;;4.73;2.60;;;10.40;91.90;;;12.14;61.15;97440.97;5028061;28;20385;-41
2024/03/16 02:58:23;;;;;;;3.33;1.80;;;10.40;91.60;;;12.12;61.16;97439.50;5023153;28;20051;-42
2024/03/16 03:00:51;;;;;;;6.83;3.30;;;10.40;91.30;;;12.12;61.32;97439.50;5011223;28;20061;-41
2024/03/16 03:03:19;;;;;;;5.23;3.10;;;10.40;91.20;;;12.13;61.51;97444.63;5013936;28;20061;-42
2024/03/16 03:05:46;;;;;;;5.90;2.30;;;10.50;90.80;;;12.15;61.49;97449.78;5029123;28;20037;-42
2024/03/16 03:08:14;;;;;;;3.87;2.20;;;10.60;90.50;;;12.16;61.23;97449.63;5029063;28;20051;-42
2024/03/16 03:10:42;;;;;;;2.33;1.10;;;10.50;90.40;;;12.19;61.31;97459.09;5003413;28;20069;-42
2024/03/16 03:13:09;;;;;;;1.03;0.70;;;10.60;90.80;;;12.21;61.34;97468.63;5011411;28;20434;-42
2024/03/16 03:15:37;;;;;;;1.70;0.87;;;10.60;90.80;;;12.21;61.61;97465.09;5025742;28;20048;-43
2024/03/16 03:18:05;;;;;;;1.70;1.00;;;10.60;91.80;;;12.15;62.04;97476.47;5028961;28;20040;-44
2024/03/16 03:20:34;;;;;;;3.00;0.80;;;10.60;92.10;;;12.15;61.89;97479.97;5016115;28;20048;-44
2024/03/16 03:23:05;;;;;;;2.50;1.00;;;10.60;92.60;;;12.12;62.19;97488.34;5011508;28;20490;-43
2024/03/16 03:25:33;;;;;;;1.83;1.00;;;10.50;93.10;;;12.10;62.27;97492.19;5022567;28;20081;-43
2024/03/16 03:28:03;;;;;;;1.93;0.97;;;10.50;93.60;;;12.04;62.92;97504.41;5031324;28;20107;-42
2024/03/16 03:30:31;;;;;;;2.03;1.20;;;10.40;94.90;;;11.97;63.17;97501.56;5021749;28;20040;-43
2024/03/16 03:32:58;;;;;;;3.73;1.10;;;10.30;96.50;;;12.04;63.11;97500.88;5015066;28;20065;-42
2024/03/16 03:35:26;;;;;;;2.40;1.30;;;10.40;96.50;;;12.08;62.95;97496.84;5019860;28;20054;-43
2024/03/16 03:37:54;;;;;;;2.57;1.20;;;10.50;95.90;;;12.12;63.00;97504.34;5031309;28;20060;-43
2024/03/16 03:40:21;;;;;;;2.57;1.00;;;10.60;95.10;;;11.98;63.30;97503.25;5028601;28;20047;-43
2024/03/16 03:42:52;;;;;;;0.80;0.73;;;10.50;94.70;;;12.04;62.82;97504.41;5013901;28;20043;-42
2024/03/16 03:45:37;;;;;;;1.53;0.73;;;10.60;94.40;;;12.05;63.04;97503.38;5014886;28;20525;-43
2024/03/16 03:48:25;;;;;;;1.23;0.83;;;10.60;93.10;;;12.08;62.99;97508.38;5032204;28;20037;-42
2024/03/16 03:50:55;;;;;;;1.27;1.00;;;10.70;93.60;;;12.14;63.12;97507.69;5007538;28;20042;-43
2024/03/16 03:53:25;;;;;;;2.70;1.30;;;10.70;93.80;;;12.11;63.16;97505.34;5016770;28;20524;-43
2024/03/16 03:55:54;;;;;;;1.67;0.80;;;10.70;93.00;;;12.13;62.98;97497.19;5030991;28;20045;-44
2024/03/16 03:58:22;;;;;;;0.87;0.67;;;10.70;93.20;;;12.09;63.02;97507.34;5031346;28;20503;-43
2024/03/16 04:00:50;;;;;;;2.10;0.68;;;10.60;92.30;;;11.95;63.05;97506.25;5014286;28;20050;-42
2024/03/16 04:03:17;;;;;;;1.27;0.70;;;10.50;92.70;;;11.96;63.25;97518.59;5013507;28;20038;-43
2024/03/16 04:05:45;;;;;;;1.70;0.70;;;10.50;93.80;;;12.02;62.88;97519.75;5031061;28;20036;-44
2024/03/16 04:08:13;;;;;;;1.40;0.67;;;10.50;93.50;;;11.99;62.93;97526.25;5031898;28;20044;-42
2024/03/16 04:10:40;;;;;;;1.53;0.60;;;10.50;92.90;;;11.85;63.36;97510.94;5017767;28;20057;-42
2024/03/16 04:13:08;;;;;;;1.10;0.60;;;10.40;92.50;;;11.89;62.91;97516.78;5012829;28;20057;-42
2024/03/16 04:15:36;;;;;;;2.60;1.00;;;10.40;92.50;;;11.91;63.09;97522.78;5023847;28;20055;-42
2024/03/16 04:18:04;;;;;;;1.03;0.60;;;10.50;92.60;;;11.88;63.14;97515.91;5031889;28;20049;-43
2024/03/16 04:20:31;;;;;;;2.30;0.80;;;10.50;92.80;;;11.91;63.03;97515.63;5023511;28;20048;-42
2024/03/16 04:23:01;;;;;;;0.67;0.60;;;10.50;92.50;;;11.90;63.22;97523.78;5029607;28;20050;-42
2024/03/16 04:25:29;;;;;;;0.53;0.53;;;10.50;91.80;;;11.87;63.38;97524.94;5018022;28;20038;-43
2024/03/16 04:27:56;;;;;;;0.57;0.50;;;10.50;92.20;;;11.88;63.09;97525.75;5031653;28;20051;-42
2024/03/16 04:30:24;;;;;;;1.63;0.70;;;10.50;91.80;;;11.84;63.24;97519.94;5030763;28;20048;-42
2024/03/16 04:32:51;;;;;;;1.90;0.70;;;10.50;91.20;;;11.88;63.05;97520.44;5010390;28;20043;-43
2024/03/16 04:35:19;;;;;;;0.87;0.60;;;10.50;91.50;;;11.91;63.10;97514.78;5014100;28;20074;-42
2024/03/16 04:37:47;;;;;;;1.00;0.50;;;10.40;91.80;;;11.93;62.57;97512.78;5029159;28;20040;-42
2024/03/16 04:40:14;;;;;;;0.63;0.40;;;10.40;91.20;;;11.94;62.58;97511.75;5030913;28;20044;-42
2024/03/16 04:42:43;;;;;;;0.60;0.40;;;10.50;90.30;;;11.92;62.45;97524.44;5025845;28;20071;-42
2024/03/16 04:45:11;;;;;;;0.40;0.40;;;10.50;89.10;;;11.91;62.30;97512.13;5013996;28;20113;-42
2024/03/16 04:47:38;;;;;;;1.20;1.10;;;10.50;89.20;;;11.90;62.38;97519.28;5023174;28;20047;-42
2024/03/16 04:50:06;;;;;;;2.67;0.50;;;10.50;88.60;;;11.90;62.40;97524.59;5029802;28;20207;-42
2024/03/16 04:52:34;;;;;;;0.23;0.23;;;10.50;88.30;;;11.88;61.99;97518.59;5025106;28;20056;-42
2024/03/16 04:55:03;;;;;;;0.40;0.40;;;10.50;88.40;;;11.89;62.14;97525.63;5013606;28;20054;-42
2024/03/16 04:57:31;;;;;;;1.20;0.40;;;10.50;88.50;;;11.90;61.88;97521.13;5017058;28;20054;-42
2024/03/16 04:59:58;;;;;;;0.83;0.70;;;10.50;88.30;;;11.85;61.96;97523.47;5030704;28;20037;-42
2024/03/16 05:02:26;;;;;;;0.93;0.67;;;10.50;88.50;;;11.83;61.85;97520.97;5031007;28;20040;-44
2024/03/16 05:04:54;;;;;;;0.40;0.40;;;10.40;88.80;;;11.83;62.12;97516.44;5013063;28;20042;-42
2024/03/16 05:07:25;;;;;;;0.60;0.60;;;10.40;88.80;;;11.82;61.97;97520.13;5013622;28;20031;-42
2024/03/16 05:09:54;;;;;;;0.60;0.57;;;10.40;88.80;;;11.84;61.98;97530.59;5005387;28;20047;-42
2024/03/16 05:12:22;;;;;;;0.43;0.43;;;10.40;88.60;;;11.83;62.30;97516.44;5013488;28;20047;-42
2024/03/16 05:14:50;;;;;;;0.30;0.30;;;10.40;88.80;;;11.85;61.96;97526.13;5028716;28;20043;-42
2024/03/16 05:17:17;;;;;;;0.40;0.40;;;10.50;88.40;;;11.84;61.83;97527.94;5030775;28;20049;-42
2024/03/16 05:19:46;;;;;;;0.40;0.40;;;10.40;88.30;;;11.85;61.97;97536.78;5018547;28;20052;-42
2024/03/16 05:22:14;;;;;;;0.93;0.40;;;10.50;87.90;;;11.80;61.76;97531.97;5013024;28;20046;-42
2024/03/16 05:24:42;;;;;;;0.47;0.40;;;10.40;87.90;;;11.78;61.58;97534.78;5022558;28;20418;-42
2024/03/16 05:27:11;;;;;;;0.97;0.50;;;10.40;88.20;;;11.78;61.64;97536.63;5030530;28;20045;-42
2024/03/16 05:29:38;;;;;;;0.30;0.30;;;10.30;88.60;;;11.80;61.54;97530.13;5023790;28;20045;-42
2024/03/16 05:32:06;;;;;;;0.60;0.40;;;10.40;88.40;;;11.86;61.55;97536.59;5013188;28;20042;-42
2024/03/16 05:34:34;;;;;;;0.50;0.40;;;10.40;88.60;;;11.88;61.66;97539.09;5014060;28;20192;-42
2024/03/16 05:37:01;;;;;;;0.57;0.37;;;10.40;88.30;;;11.83;61.43;97542.28;5030489;28;20048;-42
2024/03/16 05:39:29;;;;;;;0.50;0.50;;;10.30;88.30;;;11.81;61.77;97549.63;5030119;28;20037;-42
2024/03/16 05:41:56;;;;;;;0.40;0.20;;;10.30;88.50;;;11.81;61.56;97552.31;5004844;28;20038;-42
2024/03/16 05:44:25;;;;;;;0.83;0.60;;;10.30;88.90;;;11.85;61.70;97545.63;5012896;28;20038;-42
2024/03/16 05:46:52;;;;;;;0.50;0.50;;;10.30;89.30;;;11.90;61.42;97543.28;5028145;28;20037;-42
2024/03/16 05:49:20;;;;;;;0.53;0.50;;;10.30;88.90;;;11.91;61.36;97550.28;5027884;28;20041;-42
2024/03/16 05:51:50;;;;;;;0.40;0.40;;;10.40;88.30;;;11.87;61.31;97551.63;5016279;28;20472;-42
2024/03/16 05:54:17;;;;;;;0.93;0.70;;;10.40;88.00;;;11.91;61.34;97554.81;5011542;28;20498;-42
2024/03/16 05:56:45;;;;;;;0.57;0.50;;;10.30;88.10;;;11.92;61.25;97554.63;5022672;28;20410;-42
2024/03/16 05:59:13;;;;;;;1.70;0.60;;;10.30;87.80;;;11.90;61.37;97556.63;5029913;28;20049;-42
2024/03/16 06:01:42;;;;;;;1.37;1.00;;;10.30;88.30;;;11.88;61.40;97563.94;5023199;28;20041;-42
2024/03/16 06:04:10;;;;;;;0.47;0.40;;;10.20;88.70;;;11.89;61.48;97562.97;5012584;28;20043;-42
2024/03/16 06:06:38;;;;;;;0.50;0.40;;;10.20;89.20;;;11.90;61.55;97579.81;5016259;28;20047;-42
2024/03/16 06:09:05;;;;;;;0.50;0.50;;;10.20;89.50;;;11.92;61.57;97585.78;5029591;28;20036;-42
2024/03/16 06:11:36;;;;;;;0.93;0.50;;;10.20;89.60;;;11.94;61.60;97583.78;5026825;28;20044;-42
2024/03/16 06:14:09;;;;;;;0.77;0.47;;;10.30;89.80;;;11.94;61.74;97583.78;5027783;28;20117;-42
2024/03/16 06:16:40;;;;;;;0.63;0.50;;;10.30;89.40;;;11.98;61.56;97588.63;5014736;28;20061;-41
2024/03/16 06:19:08;;;;;;;0.50;0.37;;;10.30;89.30;;;11.99;61.44;97587.63;5029700;28;20060;-41
2024/03/16 06:21:36;;;;;;;1.37;0.53;;;10.40;89.50;;;12.02;61.67;97584.63;5027590;28;20048;-41
2024/03/16 06:24:04;;;;;;;1.00;0.50;;;10.40;89.20;;;12.04;61.63;97587.13;5012210;28;20039;-41
2024/03/16 06:26:39;;;;;;;0.50;0.50;;;10.40;89.10;;;12.07;61.55;97583.25;5012087;28;20406;-41
2024/03/16 06:29:08;;;;;;;1.50;0.43;;;10.50;88.80;;;12.09;61.36;97595.41;5005318;28;20513;-41
2024/03/16 06:31:37;;;;;;;1.03;0.50;;;10.50;88.70;;;12.09;61.33;97605.25;5012958;28;20069;-41
2024/03/16 06:34:06;;;;;;;1.40;0.40;;;10.40;89.10;;;12.13;61.57;97609.25;5029573;28;20059;-41
2024/03/16 06:36:36;;;;;;;1.90;1.03;;;10.50;89.10;;;12.15;61.50;97613.41;5029325;28;20048;-41
2024/03/16 06:39:10;;;;;;;1.60;0.50;;;10.50;88.40;;;12.18;61.17;97613.06;5019855;28;20467;-41
2024/03/16 06:41:38;;;;;;;0.87;0.60;;;10.60;87.80;;;12.23;61.24;97620.56;5012806;28;20050;-41
2024/03/16 06:44:05;;;;;;;0.73;0.50;;;10.70;87.90;;;12.24;61.07;97616.06;5028125;28;20256;-41
2024/03/16 06:46:33;;;;;;;1.30;0.65;;;10.70;88.70;;;12.27;61.31;97615.69;5028993;28;20045;-41
2024/03/16 06:49:05;;;;;;;0.40;0.40;;;10.70;88.20;;;12.28;61.16;97620.88;5012018;28;20039;-42
2024/03/16 06:51:34;;;;;;;1.45;0.70;;;10.70;87.80;;;12.29;61.43;97624.38;5011377;28;20055;-41
2024/03/16 06:54:03;;;;;;;1.50;0.60;;;10.70;88.20;;;12.31;61.32;97625.03;5010181;28;20041;-41
2024/03/16 06:56:31;;;;;;;1.00;0.70;;;10.80;87.80;;;12.31;61.25;97641.91;5029223;28;20047;-40
2024/03/16 06:58:59;;;;;;;0.60;0.47;;;10.80;87.80;;;12.29;61.47;97638.56;5013872;28;20422;-41
2024/03/16 07:01:27;;;;;;;1.25;0.75;;;10.80;88.40;;;12.26;61.88;97640.75;5015119;28;20046;-40
2024/03/16 07:03:55;;;;;;;1.10;0.65;;;10.80;89.00;;;12.21;61.76;97655.44;5028093;28;20125;-40
2024/03/16 07:06:23;;;;;;;0.87;0.50;;;10.70;89.20;;;12.20;62.33;97650.28;5034276;28;20040;-41
2024/03/16 07:08:50;;;;;;;1.95;0.57;;;10.70;89.80;;;12.20;61.93;97659.09;5026759;28;20052;-41
2024/03/16 07:11:19;;;;;;;0.60;0.53;;;10.70;89.80;;;12.20;61.99;97656.44;5016850;28;20069;-41
2024/03/16 07:13:46;;;;;;;0.93;0.63;;;10.80;89.70;;;12.19;62.13;97668.13;5022524;28;20043;-41
2024/03/16 07:16:15;;;;;;;1.90;0.80;;;10.80;89.90;;;12.23;62.31;97663.25;5035418;28;20052;-41
2024/03/16 07:18:44;;;;;;;1.00;0.60;;;10.80;90.00;;;12.26;62.34;97670.09;5032475;28;20056;-41
2024/03/16 07:21:14;;;;;;;2.53;0.97;;;10.80;90.00;;;12.26;62.36;97678.13;5016248;28;20043;-41
2024/03/16 07:23:43;;;;;;;1.10;1.00;;;10.80;89.80;;;12.28;62.29;97681.44;5017870;28;20054;-41
2024/03/16 07:26:11;;;;;;;4.17;0.80;;;10.80;90.00;;;12.24;62.60;97686.28;5035569;28;20067;-41
2024/03/16 07:28:39;;;;;;;0.97;0.60;;;10.80;90.10;;;12.17;62.76;97685.28;5035577;28;20055;-41
2024/03/16 07:31:07;;;;;;;1.27;0.50;;;10.80;91.00;;;12.21;62.74;97676.78;5008504;28;20047;-41
2024/03/16 07:33:35;;;;;;;1.10;0.70;;;10.80;91.00;;;12.27;62.97;97683.28;5014949;28;20055;-40
2024/03/16 07:36:04;;;;;;;1.47;0.67;;;10.90;91.20;;;12.33;63.10;97690.63;5032369;28;20052;-40
2024/03/16 07:38:31;;;;;;;3.17;1.58;;;11.00;91.10;;;12.31;63.16;97691.75;5034029;28;20036;-40
2024/03/16 07:40:59;;;;;;;0.90;0.67;;;11.00;90.80;;;12.28;63.03;97689.44;5022486;28;20052;-40
2024/03/16 07:43:26;;;;;;;1.33;0.90;;;10.90;91.30;;;12.34;63.38;97694.09;5016554;28;20039;-41
2024/03/16 07:45:54;;;;;;;1.13;0.68;;;11.00;91.80;;;12.40;63.17;97696.09;5025724;28;20422;-40
2024/03/16 07:48:22;;;;;;;1.92;0.80;;;11.00;91.40;;;12.46;63.33;97710.59;5035230;28;20407;-41
2024/03/16 07:50:49;;;;;;;2.60;1.23;;;11.00;91.40;;;12.52;63.04;97709.91;5030029;28;20419;-40
2024/03/16 07:53:17;;;;;;;1.80;0.80;;;11.10;91.50;;;12.60;63.00;97715.19;5017831;28;20047;-41
2024/03/16 07:55:45;;;;;;;5.68;0.90;;;11.20;91.70;;;12.63;63.14;97719.38;5018493;28;20057;-40
2024/03/16 07:58:13;;;;;;;2.80;1.07;;;11.20;91.70;;;12.63;63.40;97724.72;5035102;28;20040;-40
2024/03/16 08:00:40;;;;;;;1.13;0.75;;;11.30;92.40;;;12.60;63.71;97717.88;5034344;28;20491;-40
2024/03/16 08:03:08;;;;;;;1.47;0.73;;;11.30;92.00;;;12.66;63.54;97732.38;5018255;28;20043;-40
2024/03/16 08:05:36;;;;;;;3.45;0.80;;;11.30;91.60;;;12.66;63.62;97727.88;5017398;28;20051;-41
2024/03/16 08:08:04;;;;;;;2.72;0.85;;;11.30;92.50;;;12.74;63.67;97732.38;5029259;28;20047;-40
2024/03/16 08:10:32;;;;;;;1.23;1.10;;;11.30;92.00;;;12.81;63.63;97727.97;5034587;28;20040;-40
2024/03/16 08:13:00;;;;;;;2.20;1.10;;;11.40;91.30;;;12.90;63.65;97723.44;5021757;28;20047;-41
2024/03/16 08:15:27;;;;;;;1.98;0.80;;;11.60;91.20;;;12.89;63.54;97725.31;5014403;28;20039;-41
2024/03/16 08:17:57;;;;;;;2.67;1.23;;;11.60;90.70;;;12.92;63.74;97740.13;5021174;28;20047;-41
2024/03/16 08:20:25;;;;;;;4.30;1.02;;;11.60;90.60;;;12.96;63.83;97747.63;5031125;28;20049;-41
2024/03/16 08:22:55;;;;;;;0.80;0.60;;;11.70;90.60;;;12.95;63.71;97743.31;5026805;28;20515;-41
2024/03/16 08:25:23;;;;;;;4.50;1.10;;;11.70;89.90;;;12.93;63.63;97742.66;5014275;28;20482;-41
2024/03/16 08:27:51;;;;;;;1.30;0.82;;;11.70;89.50;;;12.94;63.65;97744.28;5017184;28;20070;-41
2024/03/16 08:30:19;;;;;;;3.17;1.10;;;11.60;90.30;;;12.95;63.49;97751.31;5030925;28;20040;-41
2024/03/16 08:32:46;;;;;;;2.35;0.90;;;11.70;90.30;;;13.03;63.23;97754.94;5031539;28;20052;-41
2024/03/16 08:35:14;;;;;;;1.83;1.08;;;11.70;90.00;;;12.93;63.57;97755.16;5006256;28;20058;-41
2024/03/16 08:37:42;;;;;;;2.05;1.25;;;11.70;90.20;;;12.96;63.50;97763.66;5012556;28;20115;-41
2024/03/16 08:40:12;;;;;;;2.58;1.20;;;11.70;90.50;;;12.98;63.50;97756.31;5027727;28;20041;-41
2024/03/16 08:42:41;;;;;;;6.22;1.40;;;11.70;90.20;;;13.09;63.21;97773.81;5031174;28;20055;-41
2024/03/16 08:45:09;;;;;;;2.70;1.20;;;11.80;89.20;;;13.09;63.26;97773.81;5016406;28;20055;-41
2024/03/16 08:47:37;;;;;;;1.88;0.90;;;11.80;89.90;;;13.09;63.36;97781.81;5011988;28;20055;-41
2024/03/16 08:50:07;;;;;;;3.80;1.15;;;11.80;89.50;;;13.14;63.33;97779.47;5025110;28;20425;-41
2024/03/16 08:52:35;;;;;;;2.40;1.20;;;11.90;89.80;;;13.20;63.11;97780.59;5031091;28;20420;-40
2024/03/16 08:55:05;;;;;;;2.25;1.10;;;11.90;89.20;;;13.26;62.96;97779.06;5019601;28;20048;-41
2024/03/16 08:57:33;;;;;;;2.85;1.30;;;12.00;88.50;;;13.29;62.97;97784.91;5013642;28;20046;-41
2024/03/16 09:00:04;;;;;;;3.28;1.48;;;12.00;88.30;;;13.27;62.68;97781.56;5021681;28;20051;-41
2024/03/16 09:02:32;;;;;;;2.75;1.45;;;12.00;87.20;;;13.32;62.41;97786.44;5030651;28;20064;-40
2024/03/16 09:05:00;;;;;;;3.22;1.30;;;12.00;86.10;;;13.23;62.28;97790.94;5024348;28;20400;-40
2024/03/16 09:07:28;;;;;;;1.98;1.02;;;12.00;85.80;;;13.24;62.03;97784.59;5013523;28;20046;-40
2024/03/16 09:09:57;;;;;;;3.33;1.30;;;12.00;86.30;;;13.30;61.73;97810.66;5015191;28;20422;-41
2024/03/16 09:12:26;;;;;;;2.60;0.95;;;12.00;85.30;;;12.99;61.63;97792.72;5030679;28;20944;-41
2024/03/16 09:14:53;;;;;;;2.75;1.13;;;11.80;84.70;;;12.96;62.04;97781.53;5028645;28;20059;-40
2024/03/16 09:17:21;;;;;;;1.35;1.00;;;11.70;86.00;;;12.93;61.88;97790.75;5013480;28;20182;-40
2024/03/16 09:19:48;;;;;;;1.77;0.90;;;11.70;84.90;;;13.00;61.68;97798.88;5013299;28;20043;-40
2024/03/16 09:22:16;;;;;;;1.15;0.90;;;11.80;84.60;;;13.02;61.91;97790.72;5029338;28;20041;-41
2024/03/16 09:24:46;;;;;;;1.98;1.20;;;11.80;85.20;;;13.05;61.77;97807.22;5027552;28;20072;-40
2024/03/16 09:27:13;;;;;;;2.00;1.08;;;11.90;84.70;;;12.76;62.32;97795.31;5027588;28;20050;-41
2024/03/16 09:29:43;;;;;;;3.05;1.20;;;11.80;84.80;;;12.91;62.23;97792.75;5010889;28;20038;-42
2024/03/16 09:32:13;;;;;;;1.40;0.77;;;11.80;85.00;;;12.95;61.79;97806.59;5023705;28;20474;-42
2024/03/16 09:34:41;;;;;;;1.23;0.82;;;11.90;83.60;;;12.96;61.79;97825.13;4991203;28;20043;-42
2024/03/16 09:37:08;;;;;;;4.00;1.00;;;11.90;83.60;;;13.02;61.06;97817.44;4969766;28;20050;-42
2024/03/16 09:39:37;;;;;;;2.38;0.95;;;12.00;82.10;;;12.98;61.25;97817.75;4968747;28;20062;-43
2024/03/16 09:42:06;;;;;;;1.85;0.95;;;11.90;82.80;;;12.96;61.17;97814.44;4986428;28;20449;-42
2024/03/16 09:44:34;;;;;;;2.25;1.00;;;11.90;82.50;;;12.72;61.25;97803.84;4969818;28;20050;-43
2024/03/16 09:47:03;;;;;;;1.48;0.75;;;11.80;82.10;;;13.00;61.35;97822.94;4967947;28;20054;-43
2024/03/16 09:49:33;;;;;;;2.10;0.90;;;12.00;83.00;;;12.95;60.92;97826.16;4961322;28;20446;-43
2024/03/16 09:52:06;;;;;;;3.20;1.70;;;11.90;81.60;;;13.00;60.67;97830.97;4948876;28;20054;-43
2024/03/16 09:54:37;;;;;;;1.20;1.10;;;12.00;81.90;;;12.96;60.97;97827.78;4952883;28;20058;-43
2024/03/16 09:57:05;;;;;;;2.60;1.00;;;12.00;82.40;;;12.90;61.09;97833.00;4967453;28;20302;-42
2024/03/16 09:59:31;;;;;;;3.08;1.42;;;11.90;82.60;;;12.85;61.27;97825.47;4968376;28;20046;-43
2024/03/16 10:01:59;;;;;;;6.00;2.75;;;11.80;82.40;;;12.76;61.13;97829.19;4951402;28;20042;-42
2024/03/16 10:04:27;;;;;;;2.05;1.08;;;11.70;82.70;;;12.76;61.12;97835.38;4952329;28;20054;-43
2024/03/16 10:06:54;;;;;;;2.75;1.35;;;11.70;82.80;;;12.76;61.61;97838.03;4968241;28;20035;-43
2024/03/16 10:09:23;;;;;;;2.17;1.52;;;11.70;83.20;;;12.65;61.68;97843.72;4952135;28;20054;-42
2024/03/16 10:11:49;;;;;;;3.47;1.63;;;11.70;83.20;;;12.71;61.96;97845.72;4951421;28;20058;-42
2024/03/16 10:14:16;;;;;;;2.25;1.10;;;11.70;84.00;;;12.90;61.80;97833.00;4951736;28;20055;-42
2024/03/16 10:16:44;;;;;;;1.85;0.98;;;11.80;83.80;;;12.77;61.65;97845.03;5009535;28;20061;-42
2024/03/16 10:19:13;;;;;;;1.17;0.85;;;11.70;83.40;;;12.80;61.94;97852.72;4959574;28;20058;-43
2024/03/16 10:21:41;;;;;;;1.92;1.10;;;11.80;84.80;;;12.91;62.10;97842.66;4951564;28;20047;-42
2024/03/16 10:24:10;;;;;;;2.37;1.30;;;11.80;84.50;;;12.95;61.97;97850.19;4962506;28;20045;-43